sensor_id;sensor_type;location;lat;lon;timestamp;P1;durP1;ratioP1;P2;durP2;ratioP2
72205;SDS011;60111;48.286;7.812;2023-07-28T00:00:42;3.80;;;1.90;;
72205;SDS011;60111;48.286;7.812;2023-07-28T00:03:15;5.10;;;2.00;;
72205;SDS011;60111;48.286;7.812;2023-07-28T00:05:47;2.65;;;1.72;;
72205;SDS011;60111;48.286;7.812;2023-07-28T00:08:20;3.92;;;2.00;;
72205;SDS011;60111;48.286;7.812;2023-07-28T00:10:53;2.65;;;2.00;;
72205;SDS011;60111;48.286;7.812;2023-07-28T00:13:26;2.85;;;2.17;;
72205;SDS011;60111;48.286;7.812;2023-07-28T00:15:59;2.60;;;1.67;;
72205;SDS011;60111;48.286;7.812;2023-07-28T00:18:31;4.00;;;2.20;;
72205;SDS011;60111;48.286;7.812;2023-07-28T00:21:04;5.62;;;2.20;;
72205;SDS011;60111;48.286;7.812;2023-07-28T00:23:37;2.07;;;1.97;;
72205;SDS011;60111;48.286;7.812;2023-07-28T00:26:09;3.05;;;2.30;;
72205;SDS011;60111;48.286;7.812;2023-07-28T00:28:42;3.87;;;2.20;;
72205;SDS011;60111;48.286;7.812;2023-07-28T00:31:14;3.95;;;1.90;;
72205;SDS011;60111;48.286;7.812;2023-07-28T00:33:47;3.15;;;2.10;;
72205;SDS011;60111;48.286;7.812;2023-07-28T00:36:19;5.75;;;2.50;;
72205;SDS011;60111;48.286;7.812;2023-07-28T00:38:52;2.25;;;2.00;;
72205;SDS011;60111;48.286;7.812;2023-07-28T00:41:25;3.70;;;1.92;;
72205;SDS011;60111;48.286;7.812;2023-07-28T00:43:57;2.22;;;2.02;;
72205;SDS011;60111;48.286;7.812;2023-07-28T00:46:30;3.75;;;2.15;;
72205;SDS011;60111;48.286;7.812;2023-07-28T00:49:03;2.80;;;1.77;;
72205;SDS011;60111;48.286;7.812;2023-07-28T00:51:35;2.77;;;1.90;;
72205;SDS011;60111;48.286;7.812;2023-07-28T00:54:09;4.23;;;2.33;;
72205;SDS011;60111;48.286;7.812;2023-07-28T00:56:43;3.13;;;2.27;;
72205;SDS011;60111;48.286;7.812;2023-07-28T00:59:16;3.75;;;2.10;;
72205;SDS011;60111;48.286;7.812;2023-07-28T01:01:49;2.98;;;2.30;;
72205;SDS011;60111;48.286;7.812;2023-07-28T01:04:22;4.60;;;2.55;;
72205;SDS011;60111;48.286;7.812;2023-07-28T01:07:03;3.87;;;2.37;;
72205;SDS011;60111;48.286;7.812;2023-07-28T01:12:50;2.58;;;2.20;;
72205;SDS011;60111;48.286;7.812;2023-07-28T01:15:24;3.37;;;2.25;;
72205;SDS011;60111;48.286;7.812;2023-07-28T01:17:56;4.03;;;2.30;;
72205;SDS011;60111;48.286;7.812;2023-07-28T01:20:29;2.72;;;2.30;;
72205;SDS011;60111;48.286;7.812;2023-07-28T01:23:18;3.25;;;2.42;;
72205;SDS011;60111;48.286;7.812;2023-07-28T01:26:11;2.87;;;2.10;;
72205;SDS011;60111;48.286;7.812;2023-07-28T01:28:45;2.58;;;2.12;;
72205;SDS011;60111;48.286;7.812;2023-07-28T01:31:18;3.33;;;2.08;;
72205;SDS011;60111;48.286;7.812;2023-07-28T01:33:51;2.42;;;2.20;;
72205;SDS011;60111;48.286;7.812;2023-07-28T01:36:24;3.00;;;2.02;;
72205;SDS011;60111;48.286;7.812;2023-07-28T01:38:56;2.65;;;2.02;;
72205;SDS011;60111;48.286;7.812;2023-07-28T01:41:29;4.35;;;2.45;;
72205;SDS011;60111;48.286;7.812;2023-07-28T01:44:01;3.75;;;2.30;;
72205;SDS011;60111;48.286;7.812;2023-07-28T01:46:34;2.75;;;2.10;;
72205;SDS011;60111;48.286;7.812;2023-07-28T01:49:07;4.23;;;2.30;;
72205;SDS011;60111;48.286;7.812;2023-07-28T01:51:39;2.33;;;2.12;;
72205;SDS011;60111;48.286;7.812;2023-07-28T01:54:12;3.37;;;2.07;;
72205;SDS011;60111;48.286;7.812;2023-07-28T01:56:44;3.30;;;2.02;;
72205;SDS011;60111;48.286;7.812;2023-07-28T01:59:17;3.45;;;1.95;;
72205;SDS011;60111;48.286;7.812;2023-07-28T02:01:51;2.25;;;1.95;;
72205;SDS011;60111;48.286;7.812;2023-07-28T02:04:24;4.12;;;2.30;;
72205;SDS011;60111;48.286;7.812;2023-07-28T02:06:56;4.03;;;2.00;;
72205;SDS011;60111;48.286;7.812;2023-07-28T02:09:29;2.95;;;2.33;;
72205;SDS011;60111;48.286;7.812;2023-07-28T02:12:01;4.55;;;2.08;;
72205;SDS011;60111;48.286;7.812;2023-07-28T02:14:34;4.37;;;2.15;;
72205;SDS011;60111;48.286;7.812;2023-07-28T02:17:06;3.50;;;2.20;;
72205;SDS011;60111;48.286;7.812;2023-07-28T02:19:39;2.92;;;2.30;;
72205;SDS011;60111;48.286;7.812;2023-07-28T02:22:13;2.27;;;2.08;;
72205;SDS011;60111;48.286;7.812;2023-07-28T02:24:45;3.67;;;2.02;;
72205;SDS011;60111;48.286;7.812;2023-07-28T02:27:18;2.35;;;1.90;;
72205;SDS011;60111;48.286;7.812;2023-07-28T02:29:51;2.58;;;2.30;;
72205;SDS011;60111;48.286;7.812;2023-07-28T02:32:25;4.15;;;2.55;;
72205;SDS011;60111;48.286;7.812;2023-07-28T02:34:59;4.70;;;2.42;;
72205;SDS011;60111;48.286;7.812;2023-07-28T02:37:32;4.15;;;2.25;;
72205;SDS011;60111;48.286;7.812;2023-07-28T02:40:05;2.98;;;2.22;;
72205;SDS011;60111;48.286;7.812;2023-07-28T02:42:38;3.80;;;2.30;;
72205;SDS011;60111;48.286;7.812;2023-07-28T02:45:11;4.75;;;2.58;;
72205;SDS011;60111;48.286;7.812;2023-07-28T02:47:43;3.17;;;2.40;;
72205;SDS011;60111;48.286;7.812;2023-07-28T02:50:16;3.33;;;2.40;;
72205;SDS011;60111;48.286;7.812;2023-07-28T02:52:48;3.45;;;2.30;;
72205;SDS011;60111;48.286;7.812;2023-07-28T02:55:21;2.97;;;2.20;;
72205;SDS011;60111;48.286;7.812;2023-07-28T02:57:54;3.58;;;2.17;;
72205;SDS011;60111;48.286;7.812;2023-07-28T03:00:26;2.52;;;2.30;;
72205;SDS011;60111;48.286;7.812;2023-07-28T03:02:59;5.00;;;2.45;;
72205;SDS011;60111;48.286;7.812;2023-07-28T03:05:32;3.98;;;2.25;;
72205;SDS011;60111;48.286;7.812;2023-07-28T03:08:04;3.92;;;2.40;;
72205;SDS011;60111;48.286;7.812;2023-07-28T03:10:37;4.72;;;2.62;;
72205;SDS011;60111;48.286;7.812;2023-07-28T03:13:10;3.08;;;2.20;;
72205;SDS011;60111;48.286;7.812;2023-07-28T03:15:42;3.37;;;2.47;;
72205;SDS011;60111;48.286;7.812;2023-07-28T03:18:15;6.50;;;2.47;;
72205;SDS011;60111;48.286;7.812;2023-07-28T03:20:48;3.98;;;2.17;;
72205;SDS011;60111;48.286;7.812;2023-07-28T03:23:21;4.03;;;2.42;;
72205;SDS011;60111;48.286;7.812;2023-07-28T03:25:54;2.50;;;2.30;;
72205;SDS011;60111;48.286;7.812;2023-07-28T03:28:27;6.73;;;2.60;;
72205;SDS011;60111;48.286;7.812;2023-07-28T03:30:59;2.70;;;2.43;;
72205;SDS011;60111;48.286;7.812;2023-07-28T03:33:32;3.92;;;2.40;;
72205;SDS011;60111;48.286;7.812;2023-07-28T03:36:04;5.90;;;2.42;;
72205;SDS011;60111;48.286;7.812;2023-07-28T03:38:37;3.35;;;2.40;;
72205;SDS011;60111;48.286;7.812;2023-07-28T03:41:09;3.37;;;2.37;;
72205;SDS011;60111;48.286;7.812;2023-07-28T03:43:42;3.67;;;2.55;;
72205;SDS011;60111;48.286;7.812;2023-07-28T03:46:14;3.83;;;2.60;;
72205;SDS011;60111;48.286;7.812;2023-07-28T03:48:47;2.98;;;2.55;;
72205;SDS011;60111;48.286;7.812;2023-07-28T03:51:20;3.22;;;2.30;;
72205;SDS011;60111;48.286;7.812;2023-07-28T03:53:52;6.90;;;2.67;;
72205;SDS011;60111;48.286;7.812;2023-07-28T03:56:25;4.20;;;2.30;;
72205;SDS011;60111;48.286;7.812;2023-07-28T03:58:59;7.33;;;2.67;;
72205;SDS011;60111;48.286;7.812;2023-07-28T04:01:31;3.70;;;2.50;;
72205;SDS011;60111;48.286;7.812;2023-07-28T04:04:04;4.33;;;2.45;;
72205;SDS011;60111;48.286;7.812;2023-07-28T04:06:43;3.95;;;2.50;;
72205;SDS011;60111;48.286;7.812;2023-07-28T04:09:24;2.98;;;2.25;;
72205;SDS011;60111;48.286;7.812;2023-07-28T04:11:57;3.05;;;2.45;;
72205;SDS011;60111;48.286;7.812;2023-07-28T04:14:30;2.80;;;2.40;;
72205;SDS011;60111;48.286;7.812;2023-07-28T04:17:02;3.57;;;2.60;;
72205;SDS011;60111;48.286;7.812;2023-07-28T04:19:35;3.83;;;2.53;;
72205;SDS011;60111;48.286;7.812;2023-07-28T04:22:08;2.15;;;1.95;;
72205;SDS011;60111;48.286;7.812;2023-07-28T04:24:40;4.75;;;2.58;;
72205;SDS011;60111;48.286;7.812;2023-07-28T04:27:13;4.62;;;2.60;;
72205;SDS011;60111;48.286;7.812;2023-07-28T04:29:46;3.23;;;2.47;;
72205;SDS011;60111;48.286;7.812;2023-07-28T04:32:19;2.92;;;2.35;;
72205;SDS011;60111;48.286;7.812;2023-07-28T04:34:51;3.23;;;2.33;;
72205;SDS011;60111;48.286;7.812;2023-07-28T04:37:24;3.85;;;2.20;;
72205;SDS011;60111;48.286;7.812;2023-07-28T04:39:57;2.67;;;2.10;;
72205;SDS011;60111;48.286;7.812;2023-07-28T04:42:29;7.55;;;2.95;;
72205;SDS011;60111;48.286;7.812;2023-07-28T04:45:02;3.65;;;2.22;;
72205;SDS011;60111;48.286;7.812;2023-07-28T04:47:36;4.17;;;3.03;;
72205;SDS011;60111;48.286;7.812;2023-07-28T04:50:08;3.75;;;2.80;;
72205;SDS011;60111;48.286;7.812;2023-07-28T04:52:41;4.53;;;2.55;;
72205;SDS011;60111;48.286;7.812;2023-07-28T04:55:14;2.87;;;2.55;;
72205;SDS011;60111;48.286;7.812;2023-07-28T04:57:46;3.20;;;2.40;;
72205;SDS011;60111;48.286;7.812;2023-07-28T05:00:19;2.80;;;2.33;;
72205;SDS011;60111;48.286;7.812;2023-07-28T05:02:51;5.08;;;2.95;;
72205;SDS011;60111;48.286;7.812;2023-07-28T05:05:24;4.60;;;3.22;;
72205;SDS011;60111;48.286;7.812;2023-07-28T05:07:57;3.75;;;2.90;;
72205;SDS011;60111;48.286;7.812;2023-07-28T05:10:30;3.58;;;3.10;;
72205;SDS011;60111;48.286;7.812;2023-07-28T05:13:02;4.28;;;3.22;;
72205;SDS011;60111;48.286;7.812;2023-07-28T05:15:35;5.95;;;2.92;;
72205;SDS011;60111;48.286;7.812;2023-07-28T05:18:08;3.72;;;3.20;;
72205;SDS011;60111;48.286;7.812;2023-07-28T05:20:40;6.10;;;3.30;;
72205;SDS011;60111;48.286;7.812;2023-07-28T05:23:13;3.95;;;2.83;;
72205;SDS011;60111;48.286;7.812;2023-07-28T05:25:45;5.08;;;3.27;;
72205;SDS011;60111;48.286;7.812;2023-07-28T05:28:18;4.67;;;3.27;;
72205;SDS011;60111;48.286;7.812;2023-07-28T05:30:50;6.42;;;3.08;;
72205;SDS011;60111;48.286;7.812;2023-07-28T05:33:23;4.33;;;3.30;;
72205;SDS011;60111;48.286;7.812;2023-07-28T05:35:59;5.33;;;3.20;;
72205;SDS011;60111;48.286;7.812;2023-07-28T05:38:33;3.75;;;3.30;;
72205;SDS011;60111;48.286;7.812;2023-07-28T05:41:05;4.23;;;2.80;;
72205;SDS011;60111;48.286;7.812;2023-07-28T05:43:38;3.10;;;2.80;;
72205;SDS011;60111;48.286;7.812;2023-07-28T05:46:10;4.57;;;3.57;;
72205;SDS011;60111;48.286;7.812;2023-07-28T05:48:43;5.40;;;3.55;;
72205;SDS011;60111;48.286;7.812;2023-07-28T05:51:16;3.60;;;3.30;;
72205;SDS011;60111;48.286;7.812;2023-07-28T05:53:49;4.22;;;3.50;;
72205;SDS011;60111;48.286;7.812;2023-07-28T05:56:22;3.87;;;3.07;;
72205;SDS011;60111;48.286;7.812;2023-07-28T05:58:55;6.37;;;2.90;;
72205;SDS011;60111;48.286;7.812;2023-07-28T06:01:27;4.63;;;2.77;;
72205;SDS011;60111;48.286;7.812;2023-07-28T06:04:00;7.40;;;3.30;;
72205;SDS011;60111;48.286;7.812;2023-07-28T06:06:33;4.60;;;3.20;;
72205;SDS011;60111;48.286;7.812;2023-07-28T06:09:05;5.47;;;3.20;;
72205;SDS011;60111;48.286;7.812;2023-07-28T06:11:38;9.45;;;2.87;;
72205;SDS011;60111;48.286;7.812;2023-07-28T06:14:11;3.42;;;2.87;;
72205;SDS011;60111;48.286;7.812;2023-07-28T06:16:43;3.92;;;2.95;;
72205;SDS011;60111;48.286;7.812;2023-07-28T06:19:16;3.92;;;3.05;;
72205;SDS011;60111;48.286;7.812;2023-07-28T06:21:50;3.67;;;2.80;;
72205;SDS011;60111;48.286;7.812;2023-07-28T06:24:23;3.87;;;2.77;;
72205;SDS011;60111;48.286;7.812;2023-07-28T06:26:56;3.95;;;2.70;;
72205;SDS011;60111;48.286;7.812;2023-07-28T06:29:28;5.67;;;3.08;;
72205;SDS011;60111;48.286;7.812;2023-07-28T06:32:01;3.10;;;2.80;;
72205;SDS011;60111;48.286;7.812;2023-07-28T06:34:34;4.67;;;3.23;;
72205;SDS011;60111;48.286;7.812;2023-07-28T06:37:06;5.78;;;3.27;;
72205;SDS011;60111;48.286;7.812;2023-07-28T06:39:39;4.90;;;2.90;;
72205;SDS011;60111;48.286;7.812;2023-07-28T06:42:11;3.55;;;3.10;;
72205;SDS011;60111;48.286;7.812;2023-07-28T06:44:44;3.72;;;2.65;;
72205;SDS011;60111;48.286;7.812;2023-07-28T06:47:17;4.93;;;3.17;;
72205;SDS011;60111;48.286;7.812;2023-07-28T06:49:50;3.70;;;2.80;;
72205;SDS011;60111;48.286;7.812;2023-07-28T06:52:23;5.40;;;3.00;;
72205;SDS011;60111;48.286;7.812;2023-07-28T06:54:55;3.00;;;2.50;;
72205;SDS011;60111;48.286;7.812;2023-07-28T06:57:28;2.90;;;2.60;;
72205;SDS011;60111;48.286;7.812;2023-07-28T07:00:01;6.50;;;3.43;;
72205;SDS011;60111;48.286;7.812;2023-07-28T07:02:34;5.30;;;3.10;;
72205;SDS011;60111;48.286;7.812;2023-07-28T07:05:07;3.42;;;2.60;;
72205;SDS011;60111;48.286;7.812;2023-07-28T07:07:40;3.22;;;2.87;;
72205;SDS011;60111;48.286;7.812;2023-07-28T07:10:13;4.27;;;2.40;;
72205;SDS011;60111;48.286;7.812;2023-07-28T07:12:46;4.53;;;2.80;;
72205;SDS011;60111;48.286;7.812;2023-07-28T07:15:19;7.47;;;3.07;;
72205;SDS011;60111;48.286;7.812;2023-07-28T07:17:51;2.60;;;2.40;;
72205;SDS011;60111;48.286;7.812;2023-07-28T07:20:25;3.00;;;2.55;;
72205;SDS011;60111;48.286;7.812;2023-07-28T07:22:58;4.17;;;2.73;;
72205;SDS011;60111;48.286;7.812;2023-07-28T07:25:31;5.83;;;2.95;;
72205;SDS011;60111;48.286;7.812;2023-07-28T07:28:04;6.87;;;3.03;;
72205;SDS011;60111;48.286;7.812;2023-07-28T07:30:37;3.50;;;2.57;;
72205;SDS011;60111;48.286;7.812;2023-07-28T07:33:11;4.12;;;2.62;;
72205;SDS011;60111;48.286;7.812;2023-07-28T07:35:43;3.70;;;2.80;;
72205;SDS011;60111;48.286;7.812;2023-07-28T07:38:16;5.07;;;2.90;;
72205;SDS011;60111;48.286;7.812;2023-07-28T07:40:48;4.22;;;2.33;;
72205;SDS011;60111;48.286;7.812;2023-07-28T07:43:21;3.60;;;2.53;;
72205;SDS011;60111;48.286;7.812;2023-07-28T07:45:53;4.00;;;2.67;;
72205;SDS011;60111;48.286;7.812;2023-07-28T07:48:26;4.00;;;2.53;;
72205;SDS011;60111;48.286;7.812;2023-07-28T07:50:58;3.77;;;2.45;;
72205;SDS011;60111;48.286;7.812;2023-07-28T07:53:31;6.92;;;2.62;;
72205;SDS011;60111;48.286;7.812;2023-07-28T07:56:04;4.53;;;2.60;;
72205;SDS011;60111;48.286;7.812;2023-07-28T07:58:37;3.12;;;2.30;;
72205;SDS011;60111;48.286;7.812;2023-07-28T08:01:10;3.62;;;2.45;;
72205;SDS011;60111;48.286;7.812;2023-07-28T08:03:43;3.00;;;2.40;;
72205;SDS011;60111;48.286;7.812;2023-07-28T08:06:15;4.87;;;2.65;;
72205;SDS011;60111;48.286;7.812;2023-07-28T08:08:48;4.90;;;2.77;;
72205;SDS011;60111;48.286;7.812;2023-07-28T08:11:22;4.40;;;2.67;;
72205;SDS011;60111;48.286;7.812;2023-07-28T08:13:55;5.62;;;3.00;;
72205;SDS011;60111;48.286;7.812;2023-07-28T08:16:27;7.55;;;2.77;;
72205;SDS011;60111;48.286;7.812;2023-07-28T08:19:00;4.20;;;2.37;;
72205;SDS011;60111;48.286;7.812;2023-07-28T08:21:32;5.05;;;3.30;;
72205;SDS011;60111;48.286;7.812;2023-07-28T08:24:07;3.00;;;2.70;;
72205;SDS011;60111;48.286;7.812;2023-07-28T08:26:40;5.85;;;2.47;;
72205;SDS011;60111;48.286;7.812;2023-07-28T08:29:12;4.20;;;2.85;;
72205;SDS011;60111;48.286;7.812;2023-07-28T08:31:45;4.12;;;2.42;;
72205;SDS011;60111;48.286;7.812;2023-07-28T08:34:17;5.75;;;2.92;;
72205;SDS011;60111;48.286;7.812;2023-07-28T08:36:50;6.33;;;2.80;;
72205;SDS011;60111;48.286;7.812;2023-07-28T08:39:22;6.17;;;2.70;;
72205;SDS011;60111;48.286;7.812;2023-07-28T08:41:59;4.25;;;2.60;;
72205;SDS011;60111;48.286;7.812;2023-07-28T08:44:33;6.97;;;2.65;;
72205;SDS011;60111;48.286;7.812;2023-07-28T08:47:06;4.37;;;2.50;;
72205;SDS011;60111;48.286;7.812;2023-07-28T08:49:39;5.23;;;2.67;;
72205;SDS011;60111;48.286;7.812;2023-07-28T08:52:15;6.40;;;2.90;;
72205;SDS011;60111;48.286;7.812;2023-07-28T08:54:48;5.22;;;2.58;;
72205;SDS011;60111;48.286;7.812;2023-07-28T08:57:20;4.53;;;2.60;;
72205;SDS011;60111;48.286;7.812;2023-07-28T08:59:53;9.00;;;3.10;;
72205;SDS011;60111;48.286;7.812;2023-07-28T09:02:26;2.50;;;2.30;;
72205;SDS011;60111;48.286;7.812;2023-07-28T09:05:02;4.20;;;2.90;;
72205;SDS011;60111;48.286;7.812;2023-07-28T09:07:37;4.28;;;2.67;;
72205;SDS011;60111;48.286;7.812;2023-07-28T09:10:09;7.37;;;2.80;;
72205;SDS011;60111;48.286;7.812;2023-07-28T09:12:49;3.15;;;2.67;;
72205;SDS011;60111;48.286;7.812;2023-07-28T09:15:22;4.00;;;2.67;;
72205;SDS011;60111;48.286;7.812;2023-07-28T09:17:55;7.85;;;2.75;;
72205;SDS011;60111;48.286;7.812;2023-07-28T09:20:33;4.40;;;2.62;;
72205;SDS011;60111;48.286;7.812;2023-07-28T09:23:10;8.53;;;3.52;;
72205;SDS011;60111;48.286;7.812;2023-07-28T09:25:44;3.90;;;2.67;;
72205;SDS011;60111;48.286;7.812;2023-07-28T09:28:17;6.37;;;3.00;;
72205;SDS011;60111;48.286;7.812;2023-07-28T09:30:50;5.00;;;2.72;;
72205;SDS011;60111;48.286;7.812;2023-07-28T09:33:29;4.67;;;3.10;;
72205;SDS011;60111;48.286;7.812;2023-07-28T09:36:11;3.50;;;2.83;;
72205;SDS011;60111;48.286;7.812;2023-07-28T09:38:44;3.73;;;2.97;;
72205;SDS011;60111;48.286;7.812;2023-07-28T09:41:18;5.90;;;2.93;;
72205;SDS011;60111;48.286;7.812;2023-07-28T09:43:52;6.27;;;3.03;;
72205;SDS011;60111;48.286;7.812;2023-07-28T09:46:25;4.62;;;2.98;;
72205;SDS011;60111;48.286;7.812;2023-07-28T09:49:03;4.75;;;2.75;;
72205;SDS011;60111;48.286;7.812;2023-07-28T09:51:39;4.83;;;2.67;;
72205;SDS011;60111;48.286;7.812;2023-07-28T09:54:24;3.90;;;2.63;;
72205;SDS011;60111;48.286;7.812;2023-07-28T09:57:00;5.73;;;2.70;;
72205;SDS011;60111;48.286;7.812;2023-07-28T09:59:36;4.03;;;2.42;;
72205;SDS011;60111;48.286;7.812;2023-07-28T10:02:13;5.75;;;2.27;;
72205;SDS011;60111;48.286;7.812;2023-07-28T10:04:46;2.67;;;2.40;;
72205;SDS011;60111;48.286;7.812;2023-07-28T10:07:19;9.20;;;2.42;;
72205;SDS011;60111;48.286;7.812;2023-07-28T10:09:52;5.25;;;2.33;;
72205;SDS011;60111;48.286;7.812;2023-07-28T10:12:25;6.05;;;2.33;;
72205;SDS011;60111;48.286;7.812;2023-07-28T10:15:02;2.52;;;2.30;;
72205;SDS011;60111;48.286;7.812;2023-07-28T10:17:36;4.17;;;2.33;;
72205;SDS011;60111;48.286;7.812;2023-07-28T10:20:26;4.97;;;2.25;;
72205;SDS011;60111;48.286;7.812;2023-07-28T10:23:06;3.30;;;2.42;;
72205;SDS011;60111;48.286;7.812;2023-07-28T10:25:41;2.77;;;2.53;;
72205;SDS011;60111;48.286;7.812;2023-07-28T10:31:12;4.33;;;2.52;;
72205;SDS011;60111;48.286;7.812;2023-07-28T10:33:46;5.53;;;2.30;;
72205;SDS011;60111;48.286;7.812;2023-07-28T10:39:13;3.20;;;2.37;;
72205;SDS011;60111;48.286;7.812;2023-07-28T10:42:08;2.77;;;2.30;;
72205;SDS011;60111;48.286;7.812;2023-07-28T10:44:36;3.47;;;2.30;;
72205;SDS011;60111;48.286;7.812;2023-07-28T10:47:09;4.28;;;2.33;;
72205;SDS011;60111;48.286;7.812;2023-07-28T10:49:46;6.25;;;2.17;;
72205;SDS011;60111;48.286;7.812;2023-07-28T10:52:19;4.50;;;2.33;;
72205;SDS011;60111;48.286;7.812;2023-07-28T10:54:55;2.77;;;2.23;;
72205;SDS011;60111;48.286;7.812;2023-07-28T10:57:28;5.00;;;2.40;;
72205;SDS011;60111;48.286;7.812;2023-07-28T11:00:01;3.72;;;2.20;;
72205;SDS011;60111;48.286;7.812;2023-07-28T11:02:39;2.92;;;2.27;;
72205;SDS011;60111;48.286;7.812;2023-07-28T11:05:24;4.67;;;2.37;;
72205;SDS011;60111;48.286;7.812;2023-07-28T11:07:55;4.40;;;2.00;;
72205;SDS011;60111;48.286;7.812;2023-07-28T11:10:36;2.52;;;1.95;;
72205;SDS011;60111;48.286;7.812;2023-07-28T11:13:11;3.45;;;2.10;;
72205;SDS011;60111;48.286;7.812;2023-07-28T11:15:45;4.58;;;2.30;;
72205;SDS011;60111;48.286;7.812;2023-07-28T11:18:18;5.72;;;2.10;;
72205;SDS011;60111;48.286;7.812;2023-07-28T11:20:50;4.00;;;1.90;;
72205;SDS011;60111;48.286;7.812;2023-07-28T11:23:23;3.55;;;2.12;;
72205;SDS011;60111;48.286;7.812;2023-07-28T11:25:55;2.77;;;2.25;;
72205;SDS011;60111;48.286;7.812;2023-07-28T11:28:28;4.53;;;2.00;;
72205;SDS011;60111;48.286;7.812;2023-07-28T11:31:01;2.45;;;2.20;;
72205;SDS011;60111;48.286;7.812;2023-07-28T11:33:35;3.20;;;2.17;;
72205;SDS011;60111;48.286;7.812;2023-07-28T11:36:08;6.13;;;2.40;;
72205;SDS011;60111;48.286;7.812;2023-07-28T11:38:40;4.67;;;2.60;;
72205;SDS011;60111;48.286;7.812;2023-07-28T11:41:14;3.00;;;2.10;;
72205;SDS011;60111;48.286;7.812;2023-07-28T11:43:52;6.60;;;2.30;;
72205;SDS011;60111;48.286;7.812;2023-07-28T11:46:37;3.87;;;2.50;;
72205;SDS011;60111;48.286;7.812;2023-07-28T11:49:18;2.90;;;2.02;;
72205;SDS011;60111;48.286;7.812;2023-07-28T11:51:55;4.37;;;2.05;;
72205;SDS011;60111;48.286;7.812;2023-07-28T11:54:29;2.58;;;2.10;;
72205;SDS011;60111;48.286;7.812;2023-07-28T11:57:02;2.73;;;2.27;;
72205;SDS011;60111;48.286;7.812;2023-07-28T11:59:35;3.10;;;2.50;;
72205;SDS011;60111;48.286;7.812;2023-07-28T12:02:09;6.67;;;2.50;;
72205;SDS011;60111;48.286;7.812;2023-07-28T12:04:42;4.07;;;2.30;;
72205;SDS011;60111;48.286;7.812;2023-07-28T12:07:16;4.30;;;2.05;;
72205;SDS011;60111;48.286;7.812;2023-07-28T12:09:49;3.20;;;2.80;;
72205;SDS011;60111;48.286;7.812;2023-07-28T12:12:23;3.47;;;2.40;;
72205;SDS011;60111;48.286;7.812;2023-07-28T12:15:17;5.27;;;3.10;;
72205;SDS011;60111;48.286;7.812;2023-07-28T12:20:47;4.03;;;3.00;;
72205;SDS011;60111;48.286;7.812;2023-07-28T12:23:22;6.30;;;3.17;;
72205;SDS011;60111;48.286;7.812;2023-07-28T12:25:56;4.90;;;3.23;;
72205;SDS011;60111;48.286;7.812;2023-07-28T12:28:29;5.65;;;3.60;;
72205;SDS011;60111;48.286;7.812;2023-07-28T12:31:01;4.78;;;3.17;;
72205;SDS011;60111;48.286;7.812;2023-07-28T12:33:34;4.60;;;3.30;;
72205;SDS011;60111;48.286;7.812;2023-07-28T12:36:06;6.33;;;3.50;;
72205;SDS011;60111;48.286;7.812;2023-07-28T12:41:12;6.95;;;3.70;;
72205;SDS011;60111;48.286;7.812;2023-07-28T12:43:44;5.80;;;3.50;;
72205;SDS011;60111;48.286;7.812;2023-07-28T12:46:17;5.85;;;3.60;;
72205;SDS011;60111;48.286;7.812;2023-07-28T12:48:50;6.20;;;3.62;;
72205;SDS011;60111;48.286;7.812;2023-07-28T12:51:22;4.07;;;3.63;;
72205;SDS011;60111;48.286;7.812;2023-07-28T12:53:55;5.33;;;3.80;;
72205;SDS011;60111;48.286;7.812;2023-07-28T12:56:27;7.57;;;3.93;;
72205;SDS011;60111;48.286;7.812;2023-07-28T12:59:00;7.78;;;3.92;;
72205;SDS011;60111;48.286;7.812;2023-07-28T13:01:32;5.92;;;3.40;;
72205;SDS011;60111;48.286;7.812;2023-07-28T13:04:06;5.65;;;3.60;;
72205;SDS011;60111;48.286;7.812;2023-07-28T13:06:39;6.67;;;3.60;;
72205;SDS011;60111;48.286;7.812;2023-07-28T13:09:12;6.75;;;3.98;;
72205;SDS011;60111;48.286;7.812;2023-07-28T13:11:44;4.00;;;3.23;;
72205;SDS011;60111;48.286;7.812;2023-07-28T13:14:17;6.70;;;3.60;;
72205;SDS011;60111;48.286;7.812;2023-07-28T13:16:49;3.83;;;3.45;;
72205;SDS011;60111;48.286;7.812;2023-07-28T13:19:22;4.65;;;3.47;;
72205;SDS011;60111;48.286;7.812;2023-07-28T13:21:55;3.70;;;3.12;;
72205;SDS011;60111;48.286;7.812;2023-07-28T13:24:27;4.40;;;3.20;;
72205;SDS011;60111;48.286;7.812;2023-07-28T13:27:00;4.55;;;3.10;;
72205;SDS011;60111;48.286;7.812;2023-07-28T13:29:32;4.27;;;2.90;;
72205;SDS011;60111;48.286;7.812;2023-07-28T13:32:13;3.62;;;2.72;;
72205;SDS011;60111;48.286;7.812;2023-07-28T13:34:48;3.50;;;3.20;;
72205;SDS011;60111;48.286;7.812;2023-07-28T13:39:54;4.25;;;2.98;;
72205;SDS011;60111;48.286;7.812;2023-07-28T13:42:27;3.22;;;2.92;;
72205;SDS011;60111;48.286;7.812;2023-07-28T13:44:59;4.20;;;3.10;;
72205;SDS011;60111;48.286;7.812;2023-07-28T13:47:32;3.95;;;2.77;;
72205;SDS011;60111;48.286;7.812;2023-07-28T13:50:05;3.80;;;2.72;;
72205;SDS011;60111;48.286;7.812;2023-07-28T13:52:38;5.50;;;3.00;;
72205;SDS011;60111;48.286;7.812;2023-07-28T13:55:11;3.58;;;2.85;;
72205;SDS011;60111;48.286;7.812;2023-07-28T13:57:43;3.58;;;2.72;;
72205;SDS011;60111;48.286;7.812;2023-07-28T14:00:16;4.12;;;3.22;;
72205;SDS011;60111;48.286;7.812;2023-07-28T14:02:48;4.35;;;2.92;;
72205;SDS011;60111;48.286;7.812;2023-07-28T14:05:21;3.37;;;2.80;;
72205;SDS011;60111;48.286;7.812;2023-07-28T14:07:53;4.50;;;2.80;;
72205;SDS011;60111;48.286;7.812;2023-07-28T14:10:26;5.10;;;2.65;;
72205;SDS011;60111;48.286;7.812;2023-07-28T14:12:59;3.40;;;2.95;;
72205;SDS011;60111;48.286;7.812;2023-07-28T14:15:32;3.58;;;3.12;;
72205;SDS011;60111;48.286;7.812;2023-07-28T14:18:04;6.53;;;2.95;;
72205;SDS011;60111;48.286;7.812;2023-07-28T14:20:37;6.00;;;3.10;;
72205;SDS011;60111;48.286;7.812;2023-07-28T14:23:22;3.90;;;2.93;;
72205;SDS011;60111;48.286;7.812;2023-07-28T14:25:56;3.70;;;2.77;;
72205;SDS011;60111;48.286;7.812;2023-07-28T14:28:29;3.80;;;2.95;;
72205;SDS011;60111;48.286;7.812;2023-07-28T14:31:01;3.10;;;2.80;;
72205;SDS011;60111;48.286;7.812;2023-07-28T14:33:34;3.33;;;3.02;;
72205;SDS011;60111;48.286;7.812;2023-07-28T14:36:07;3.15;;;2.77;;
72205;SDS011;60111;48.286;7.812;2023-07-28T14:38:39;5.03;;;3.20;;
72205;SDS011;60111;48.286;7.812;2023-07-28T14:41:12;3.33;;;2.98;;
72205;SDS011;60111;48.286;7.812;2023-07-28T14:43:45;3.72;;;2.85;;
72205;SDS011;60111;48.286;7.812;2023-07-28T14:46:17;4.62;;;3.40;;
72205;SDS011;60111;48.286;7.812;2023-07-28T14:48:51;5.37;;;3.50;;
72205;SDS011;60111;48.286;7.812;2023-07-28T14:51:42;3.80;;;3.12;;
72205;SDS011;60111;48.286;7.812;2023-07-28T14:54:16;3.55;;;3.25;;
72205;SDS011;60111;48.286;7.812;2023-07-28T14:56:48;5.33;;;3.35;;
72205;SDS011;60111;48.286;7.812;2023-07-28T14:59:21;6.17;;;3.10;;
72205;SDS011;60111;48.286;7.812;2023-07-28T15:01:53;4.13;;;3.50;;
72205;SDS011;60111;48.286;7.812;2023-07-28T15:04:26;3.55;;;3.08;;
72205;SDS011;60111;48.286;7.812;2023-07-28T15:06:59;3.67;;;3.20;;
72205;SDS011;60111;48.286;7.812;2023-07-28T15:09:33;4.25;;;3.85;;
72205;SDS011;60111;48.286;7.812;2023-07-28T15:12:06;4.22;;;3.70;;
72205;SDS011;60111;48.286;7.812;2023-07-28T15:14:39;4.72;;;3.45;;
72205;SDS011;60111;48.286;7.812;2023-07-28T15:17:11;6.27;;;3.00;;
72205;SDS011;60111;48.286;7.812;2023-07-28T15:19:45;5.83;;;3.30;;
72205;SDS011;60111;48.286;7.812;2023-07-28T15:22:17;6.00;;;4.00;;
72205;SDS011;60111;48.286;7.812;2023-07-28T15:24:50;4.75;;;3.37;;
72205;SDS011;60111;48.286;7.812;2023-07-28T15:27:22;5.55;;;3.20;;
72205;SDS011;60111;48.286;7.812;2023-07-28T15:29:55;3.90;;;3.25;;
72205;SDS011;60111;48.286;7.812;2023-07-28T15:32:27;5.40;;;3.70;;
72205;SDS011;60111;48.286;7.812;2023-07-28T15:35:00;7.33;;;3.47;;
72205;SDS011;60111;48.286;7.812;2023-07-28T15:37:33;4.87;;;3.17;;
72205;SDS011;60111;48.286;7.812;2023-07-28T15:40:06;6.35;;;4.03;;
72205;SDS011;60111;48.286;7.812;2023-07-28T15:43:02;9.55;;;3.80;;